Time;durP1;ratioP1;P1;durP2;ratioP2;P2;SDS_P1;SDS_P2;PMS_P1;PMS_P2;Temp;Humidity;BMP_temperature;BMP_pressure;BME280_temperature;BME280_humidity;BME280_pressure;Samples;Min_cycle;Max_cycle;Signal;HPM_P1;HPM_P2
2022/01/05 00:00:10;;;;;;;3.97;2.53;;;;;;;6.69;65.98;95998.84;5096214;28;20450;-36
2022/01/05 00:02:39;;;;;;;5.37;2.80;;;;;;;6.70;66.70;96006.56;5095425;28;20441;-35
2022/01/05 00:05:07;;;;;;;9.03;6.53;;;;;;;6.71;67.03;96002.06;5095720;28;20491;-35
2022/01/05 00:07:34;;;;;;;9.20;4.47;;;;;;;6.67;66.78;96007.03;5095306;28;20447;-36
2022/01/05 00:10:02;;;;;;;4.57;3.20;;;;;;;6.67;66.95;96006.22;5095185;28;20442;-35
2022/01/05 00:12:31;;;;;;;6.03;3.30;;;;;;;6.65;67.37;96011.72;5095497;28;20447;-35
2022/01/05 00:14:58;;;;;;;7.73;3.60;;;;;;;6.62;67.45;96000.81;5095394;28;20464;-36
2022/01/05 00:17:25;;;;;;;5.50;3.87;;;;;;;6.62;67.95;95998.19;5095239;28;20445;-36
2022/01/05 00:19:52;;;;;;;13.00;4.47;;;;;;;6.58;67.68;95992.56;5095059;28;20949;-35
2022/01/05 00:22:19;;;;;;;5.70;3.60;;;;;;;6.57;67.64;95990.97;5095005;28;20443;-35
2022/01/05 00:24:46;;;;;;;8.33;4.97;;;;;;;6.59;67.78;95999.44;5095127;28;20487;-36
2022/01/05 00:27:14;;;;;;;9.87;6.07;;;;;;;6.61;67.15;96001.88;5094384;28;20439;-36
2022/01/05 00:29:43;;;;;;;9.50;5.13;;;;;;;6.57;66.82;95999.69;5094933;28;20443;-36
2022/01/05 00:32:10;;;;;;;7.23;4.10;;;;;;;6.59;67.20;96003.94;5095046;28;20466;-35
2022/01/05 00:34:37;;;;;;;9.53;5.47;;;;;;;6.61;67.29;96007.16;5095038;28;20443;-35
2022/01/05 00:37:05;;;;;;;11.47;6.30;;;;;;;6.65;67.79;96018.84;5094988;28;20445;-35
2022/01/05 00:39:33;;;;;;;13.00;5.97;;;;;;;6.50;67.56;95996.38;5094916;28;20443;-35
2022/01/05 00:42:00;;;;;;;5.10;4.27;;;;;;;6.58;67.64;95997.84;5094538;28;20819;-37
2022/01/05 00:44:27;;;;;;;11.90;5.17;;;;;;;6.59;67.83;96004.72;5095287;28;20482;-37
2022/01/05 00:46:56;;;;;;;12.80;6.50;;;;;;;6.59;67.32;95998.66;5094538;28;20443;-38
2022/01/05 00:49:24;;;;;;;11.20;5.83;;;;;;;6.61;67.46;96007.16;5094453;28;20431;-37
2022/01/05 00:51:51;;;;;;;18.87;6.40;;;;;;;6.62;66.28;96003.47;5095237;28;20446;-37
2022/01/05 00:54:18;;;;;;;11.47;5.97;;;;;;;6.65;66.56;95997.75;5094614;28;20451;-37
2022/01/05 00:56:45;;;;;;;5.67;4.40;;;;;;;6.59;66.53;95996.03;5094305;28;20439;-37
2022/01/05 00:59:13;;;;;;;7.63;4.20;;;;;;;6.59;66.36;95988.09;5094175;28;20471;-35
2022/01/05 01:01:40;;;;;;;8.77;3.27;;;;;;;6.57;66.96;95985.69;5094528;28;20521;-35
2022/01/05 01:04:09;;;;;;;5.03;3.37;;;;;;;6.57;66.29;95986.50;5094363;28;20528;-37
2022/01/05 01:06:37;;;;;;;13.00;3.83;;;;;;;6.59;67.11;95975.72;5094140;28;20443;-38
2022/01/05 01:09:04;;;;;;;9.10;4.80;;;;;;;6.62;66.32;95977.09;5094416;28;20439;-38
2022/01/05 01:11:31;;;;;;;13.27;5.40;;;;;;;6.65;66.35;95979.28;5094399;28;20493;-37
2022/01/05 01:13:58;;;;;;;7.50;4.77;;;;;;;6.64;66.15;95988.22;5094003;28;20439;-35
2022/01/05 01:16:26;;;;;;;13.70;6.53;;;;;;;6.55;65.76;95988.56;5094004;28;20438;-35
2022/01/05 01:18:53;;;;;;;8.70;4.70;;;;;;;6.50;66.45;95982.38;5094253;28;20446;-35
2022/01/05 01:21:22;;;;;;;8.17;3.40;;;;;;;6.47;66.60;95988.88;5094223;28;20458;-35
2022/01/05 01:23:55;;;;;;;8.50;4.00;;;;;;;6.48;67.14;95998.41;5093881;28;20439;-35
2022/01/05 01:26:23;;;;;;;16.37;7.17;;;;;;;6.48;67.53;95997.63;5093881;28;20435;-35
2022/01/05 01:28:51;;;;;;;14.47;5.73;;;;;;;6.50;67.77;95985.81;5094065;28;20466;-35
2022/01/05 01:31:19;;;;;;;10.67;6.30;;;;;;;6.48;67.82;95990.50;5094014;28;20447;-35
2022/01/05 01:33:46;;;;;;;12.63;6.40;;;;;;;6.48;67.81;95987.09;5093718;28;20924;-35
2022/01/05 01:36:13;;;;;;;7.87;4.10;;;;;;;6.46;67.84;95991.78;5093637;28;20447;-35
2022/01/05 01:38:43;;;;;;;4.77;3.33;;;;;;;6.46;68.35;95989.94;5093283;28;20935;-35
2022/01/05 01:41:10;;;;;;;6.40;3.83;;;;;;;6.48;68.73;95987.09;5093900;28;20450;-38
2022/01/05 01:43:38;;;;;;;7.57;4.33;;;;;;;6.46;68.51;95989.94;5093922;28;20434;-35
2022/01/05 01:46:08;;;;;;;10.70;3.60;;;;;;;6.44;68.14;95981.44;5093461;28;20486;-35
2022/01/05 01:48:35;;;;;;;6.33;3.60;;;;;;;6.44;68.33;95978.81;5093441;28;20439;-35
2022/01/05 01:51:03;;;;;;;5.40;3.90;;;;;;;6.42;67.65;95975.59;5093816;28;20447;-36
2022/01/05 01:53:30;;;;;;;6.77;3.73;;;;;;;6.40;67.39;95980.31;5093664;28;20435;-36
2022/01/05 01:56:00;;;;;;;19.70;8.50;;;;;;;6.41;67.88;95989.84;5093694;28;20451;-36
2022/01/05 01:58:32;;;;;;;20.93;9.67;;;;;;;6.40;67.97;95982.94;5093253;28;20478;-36
2022/01/05 02:01:01;;;;;;;24.90;9.57;;;;;;;6.33;67.73;95979.63;5093762;28;20423;-36
2022/01/05 02:03:28;;;;;;;16.53;8.93;;;;;;;6.29;68.34;95974.00;5093301;28;20457;-36
2022/01/05 02:05:55;;;;;;;12.27;6.57;;;;;;;6.28;69.15;95982.13;5093471;28;20487;-36
2022/01/05 02:08:22;;;;;;;8.87;5.60;;;;;;;6.27;69.51;95972.63;5093292;28;20937;-36
2022/01/05 02:10:51;;;;;;;7.37;3.90;;;;;;;6.27;69.42;95972.63;5093255;28;20450;-36
2022/01/05 02:13:19;;;;;;;5.30;4.67;;;;;;;6.29;69.31;95974.00;5093274;28;20449;-36
2022/01/05 02:15:47;;;;;;;10.83;5.17;;;;;;;6.26;68.58;95973.63;5093288;28;20438;-35
2022/01/05 02:18:58;;;;;;;8.47;5.03;;;;;;;6.28;68.84;95963.66;5093541;28;20446;-35
2022/01/05 02:21:13;;;;;;;8.87;5.37;;;;;;;6.27;69.47;95975.25;5093018;28;20439;-35
2022/01/05 02:23:41;;;;;;;31.77;15.90;;;;;;;6.26;70.14;95958.66;5093517;28;20428;-35
2022/01/05 02:26:11;;;;;;;18.73;10.30;;;;;;;6.24;69.75;95963.34;5093071;28;20497;-36
2022/01/05 02:28:42;;;;;;;14.00;7.03;;;;;;;6.23;69.63;95966.19;5093374;28;20450;-35
2022/01/05 02:31:10;;;;;;;11.83;6.07;;;;;;;6.23;69.49;95971.47;5093410;28;20443;-35
2022/01/05 02:33:39;;;;;;;6.60;4.93;;;;;;;6.22;69.34;95952.22;5093105;28;20828;-35
2022/01/05 02:36:06;;;;;;;7.83;3.80;;;;;;;6.18;69.18;95955.56;5093080;28;20439;-37
2022/01/05 02:38:36;;;;;;;11.70;4.07;;;;;;;6.15;69.22;95952.34;5093044;28;20946;-37
2022/01/05 02:41:08;;;;;;;6.13;3.43;;;;;;;6.14;69.02;95944.66;5093319;28;20447;-38
2022/01/05 02:43:35;;;;;;;8.27;5.27;;;;;;;6.17;69.17;95943.38;5092999;28;20455;-38
2022/01/05 02:46:04;;;;;;;10.70;6.97;;;;;;;6.14;69.38;95949.94;5092983;28;20486;-38
2022/01/05 02:48:32;;;;;;;14.27;6.53;;;;;;;6.10;70.24;95948.78;5093284;28;20443;-37
2022/01/05 02:51:00;;;;;;;16.73;6.87;;;;;;;6.08;70.68;95954.25;5094054;28;20447;-38
2022/01/05 02:53:27;;;;;;;17.33;8.50;;;;;;;6.08;70.77;95959.53;5096588;28;20779;-39
2022/01/05 02:55:56;;;;;;;20.83;9.17;;;;;;;6.07;70.47;95955.31;5096620;28;20439;-37
2022/01/05 02:58:26;;;;;;;20.17;10.63;;;;;;;6.05;70.33;95954.72;5096819;28;20470;-37
2022/01/05 03:00:54;;;;;;;17.03;9.80;;;;;;;6.03;69.98;95958.63;5096592;28;20439;-37
2022/01/05 03:03:22;;;;;;;13.97;8.40;;;;;;;5.96;70.21;95942.94;5096776;28;20454;-37
2022/01/05 03:05:49;;;;;;;14.67;6.50;;;;;;;6.00;70.20;95941.44;5096572;28;20809;-37
2022/01/05 03:08:17;;;;;;;14.80;7.73;;;;;;;5.99;70.88;95937.19;5096468;28;20445;-37
2022/01/05 03:10:45;;;;;;;14.47;7.17;;;;;;;5.98;70.99;95935.59;5096315;28;20918;-36
2022/01/05 03:13:13;;;;;;;13.37;5.83;;;;;;;6.00;70.99;95953.81;5096404;28;20922;-35
2022/01/05 03:15:41;;;;;;;17.33;10.13;;;;;;;5.97;70.71;95939.25;5096315;28;20834;-36
2022/01/05 03:18:08;;;;;;;19.67;7.33;;;;;;;5.98;70.61;95930.34;5096435;28;20443;-36
2022/01/05 03:20:35;;;;;;;17.40;7.20;;;;;;;5.99;70.73;95933.75;5096579;28;20450;-35
2022/01/05 03:23:04;;;;;;;17.40;6.57;;;;;;;5.98;70.65;95934.78;5096145;28;20435;-36
2022/01/05 03:25:32;;;;;;;13.53;6.93;;;;;;;5.92;70.80;95928.56;5096047;28;21035;-36
2022/01/05 03:27:59;;;;;;;6.90;3.73;;;;;;;5.91;71.11;95933.03;5096044;28;20446;-36
2022/01/05 03:30:30;;;;;;;8.97;4.10;;;;;;;5.91;71.13;95929.59;5096000;28;20439;-36
2022/01/05 03:35:46;;;;;;;10.70;5.00;;;;;;;5.97;70.98;95928.72;5092196;28;20431;-36
2022/01/05 03:38:16;;;;;;;4.90;3.37;;;;;;;6.00;70.80;95917.72;5095806;28;20454;-36
2022/01/05 03:40:44;;;;;;;7.50;3.40;;;;;;;5.88;71.21;95896.59;5095774;28;20443;-36
2022/01/05 03:43:12;;;;;;;7.87;4.40;;;;;;;6.03;71.04;95912.00;5095766;28;20464;-36
2022/01/05 03:45:42;;;;;;;11.10;3.23;;;;;;;6.03;71.36;95914.63;5095621;28;21000;-36
2022/01/05 03:48:11;;;;;;;9.07;3.87;;;;;;;5.94;70.49;95889.63;5095608;28;20930;-35
2022/01/05 03:50:39;;;;;;;11.57;5.20;;;;;;;6.04;70.47;95907.53;5095871;28;20454;-36
2022/01/05 03:53:10;;;;;;;13.60;4.60;;;;;;;6.04;70.51;95908.31;5095888;28;20435;-36
2022/01/05 03:55:38;;;;;;;6.80;5.03;;;;;;;6.05;70.53;95915.19;5095776;28;20443;-36
2022/01/05 03:58:05;;;;;;;15.10;4.93;;;;;;;5.98;70.35;95895.25;5095544;28;20525;-36
2022/01/05 04:00:36;;;;;;;6.00;4.57;;;;;;;6.04;70.63;95913.59;5095408;28;20447;-36
2022/01/05 04:03:05;;;;;;;11.10;5.50;;;;;;;6.00;70.76;95917.72;5095301;28;20446;-36
2022/01/05 04:05:32;;;;;;;6.50;4.17;;;;;;;5.99;70.97;95913.47;5095613;28;21047;-36
2022/01/05 04:08:00;;;;;;;11.77;5.90;;;;;;;5.97;70.73;95907.63;5095641;28;20462;-36
2022/01/05 04:10:27;;;;;;;10.73;6.50;;;;;;;6.01;71.49;95914.06;5095319;28;20439;-36
2022/01/05 04:12:54;;;;;;;11.13;8.47;;;;;;;6.04;71.52;95921.50;5095257;28;20435;-36
2022/01/05 04:15:22;;;;;;;11.27;5.40;;;;;;;6.06;70.59;95905.47;5095188;28;20446;-35
2022/01/05 04:17:49;;;;;;;10.83;5.60;;;;;;;6.07;70.63;95915.00;5095372;28;20466;-36
2022/01/05 04:20:18;;;;;;;8.37;5.27;;;;;;;6.10;70.70;95909.25;5095397;28;20453;-36
2022/01/05 04:22:46;;;;;;;7.10;4.47;;;;;;;6.17;69.58;95917.81;5095071;28;20431;-36
2022/01/05 04:25:14;;;;;;;8.00;4.40;;;;;;;6.23;69.62;95916.13;5094846;28;20558;-36
2022/01/05 04:27:42;;;;;;;6.33;3.83;;;;;;;6.15;69.06;95899.63;5094977;28;20453;-36
2022/01/05 04:30:11;;;;;;;8.10;4.57;;;;;;;6.25;69.72;95916.69;5095227;28;20442;-36
2022/01/05 04:32:38;;;;;;;6.43;4.40;;;;;;;6.23;70.13;95908.22;5095147;28;20447;-36
2022/01/05 04:35:06;;;;;;;12.80;5.63;;;;;;;6.19;70.01;95904.44;5094815;28;20439;-36
2022/01/05 04:37:35;;;;;;;10.73;6.50;;;;;;;6.17;70.30;95917.81;5094853;28;20454;-36
2022/01/05 04:40:02;;;;;;;7.93;7.20;;;;;;;6.15;70.90;95904.91;5095052;28;20788;-36
2022/01/05 04:42:29;;;;;;;8.47;6.80;;;;;;;6.16;70.24;95918.88;5094648;28;20449;-36
2022/01/05 04:44:57;;;;;;;12.63;7.23;;;;;;;6.15;70.82;95918.06;5094842;28;20443;-37
2022/01/05 04:47:24;;;;;;;19.53;9.27;;;;;;;6.17;71.06;95927.56;5094658;28;20435;-36
2022/01/05 04:49:52;;;;;;;20.87;11.53;;;;;;;6.17;70.86;95932.84;5105835;28;20446;-37
2022/01/05 04:52:19;;;;;;;24.00;10.20;;;;;;;6.14;71.03;95927.00;5115058;28;20471;-36
2022/01/05 04:54:48;;;;;;;24.50;13.70;;;;;;;6.09;70.87;95919.00;5114694;28;20438;-36
2022/01/05 04:57:15;;;;;;;37.43;18.30;;;;;;;6.02;71.46;95915.66;5114716;28;20472;-36
2022/01/05 04:59:42;;;;;;;31.63;14.43;;;;;;;5.83;71.61;95906.22;5114842;28;20423;-36
2022/01/05 05:02:11;;;;;;;22.53;13.30;;;;;;;5.89;72.74;95936.91;5114565;28;20956;-35
2022/01/05 05:04:38;;;;;;;18.17;11.80;;;;;;;5.77;71.76;95934.28;5114858;28;20889;-36
2022/01/05 05:07:07;;;;;;;19.40;10.90;;;;;;;5.51;72.16;95930.22;5114579;28;20500;-36
2022/01/05 05:09:34;;;;;;;22.87;13.50;;;;;;;5.62;72.77;95947.88;5114580;28;20450;-36
2022/01/05 05:12:03;;;;;;;19.73;12.10;;;;;;;5.60;73.07;95947.28;5114747;28;20783;-36
2022/01/05 05:14:30;;;;;;;23.50;17.10;;;;;;;5.63;73.40;95949.47;5114006;28;20449;-36
2022/01/05 05:16:57;;;;;;;29.53;17.93;;;;;;;5.64;73.91;95951.09;5114202;28;20441;-36
2022/01/05 05:19:25;;;;;;;33.70;21.20;;;;;;;5.62;74.05;95953.13;5114522;27;20446;-35
2022/01/05 05:21:52;;;;;;;36.33;20.20;;;;;;;5.57;73.99;95953.03;5114617;28;20464;-36
2022/01/05 05:24:19;;;;;;;55.37;29.97;;;;;;;5.57;73.94;95947.75;5114190;28;20801;-35
2022/01/05 05:26:46;;;;;;;45.50;27.47;;;;;;;5.52;73.87;95948.41;5114103;28;20489;-36
2022/01/05 05:29:15;;;;;;;49.10;25.03;;;;;;;5.48;73.58;95946.44;5114357;28;20445;-36
2022/01/05 05:31:42;;;;;;;48.80;29.73;;;;;;;5.36;73.96;95948.25;5114437;27;20452;-36
2022/01/05 05:34:10;;;;;;;57.83;30.17;;;;;;;5.30;74.68;95945.47;5095196;28;20531;-36
2022/01/05 05:36:37;;;;;;;47.40;25.87;;;;;;;5.32;75.05;95943.41;5093768;28;20441;-35
2022/01/05 05:39:04;;;;;;;38.30;25.17;;;;;;;5.36;75.09;95943.00;5094008;28;20815;-36
2022/01/05 05:41:31;;;;;;;24.90;17.03;;;;;;;5.39;74.93;95947.78;5093933;28;20439;-36
2022/01/05 05:43:58;;;;;;;16.70;10.07;;;;;;;5.45;73.44;95944.28;5093969;28;20449;-36
2022/01/05 05:46:27;;;;;;;7.87;5.77;;;;;;;5.48;73.19;95943.81;5093857;28;20513;-36
2022/01/05 05:48:54;;;;;;;11.70;5.13;;;;;;;5.52;72.61;95944.97;5093575;28;20450;-36
2022/01/05 05:51:22;;;;;;;14.80;8.37;;;;;;;5.55;72.67;95952.44;5102157;28;20452;-36
2022/01/05 05:53:49;;;;;;;15.33;8.47;;;;;;;5.58;72.80;95946.72;5113838;28;20944;-36
2022/01/05 05:56:16;;;;;;;12.10;8.03;;;;;;;5.58;73.21;95945.91;5113755;28;20448;-36
2022/01/05 05:58:44;;;;;;;11.77;7.60;;;;;;;5.45;73.28;95941.63;5113703;28;20496;-36
2022/01/05 06:01:11;;;;;;;28.83;15.43;;;;;;;5.58;73.42;95946.72;5113696;28;20889;-36
2022/01/05 06:03:40;;;;;;;40.07;21.70;;;;;;;5.53;73.99;95928.16;5113584;28;20442;-36
2022/01/05 06:06:07;;;;;;;41.13;23.90;;;;;;;5.78;74.36;95946.41;5113665;28;20534;-36
2022/01/05 06:08:34;;;;;;;38.97;23.83;;;;;;;6.02;72.76;95949.09;5113927;28;20795;-36
2022/01/05 06:11:01;;;;;;;39.17;21.10;;;;;;;6.29;71.63;95942.38;5113613;28;20437;-36
2022/01/05 06:13:29;;;;;;;21.00;12.83;;;;;;;6.40;70.54;95922.28;5113662;28;20449;-36
2022/01/05 06:15:56;;;;;;;46.80;18.20;;;;;;;6.67;69.99;95943.72;5113855;28;20929;-36
2022/01/05 06:18:23;;;;;;;20.37;11.53;;;;;;;6.81;69.42;95944.25;5113667;28;21039;-36
2022/01/05 06:20:52;;;;;;;31.50;15.47;;;;;;;7.00;69.13;95946.75;5114032;28;20446;-37
2022/01/05 06:23:19;;;;;;;25.43;13.33;;;;;;;7.28;68.27;95952.03;5113907;28;20444;-36
2022/01/05 06:25:46;;;;;;;32.10;15.70;;;;;;;7.57;68.03;95952.00;5115995;28;20446;-36
2022/01/05 06:28:14;;;;;;;80.10;25.27;;;;;;;7.77;67.14;95948.94;5117919;27;20512;-36
2022/01/05 06:30:42;;;;;;;28.43;14.00;;;;;;;8.10;66.11;95969.28;5117528;28;20955;-36
2022/01/05 06:33:09;;;;;;;27.53;16.60;;;;;;;8.38;65.51;95962.31;5104751;28;20442;-36
2022/01/05 06:35:36;;;;;;;30.83;13.47;;;;;;;8.67;64.27;95962.22;5097144;28;20442;-36
2022/01/05 06:38:05;;;;;;;30.90;14.87;;;;;;;8.94;62.98;95965.75;5096995;28;20944;-36
2022/01/05 06:40:33;;;;;;;29.90;14.70;;;;;;;9.23;62.17;95962.94;5096976;28;20454;-37
2022/01/05 06:43:01;;;;;;;37.97;16.80;;;;;;;9.42;61.43;95939.53;5096982;28;20443;-36
2022/01/05 06:45:29;;;;;;;37.00;17.70;;;;;;;9.71;60.46;95941.94;5096887;28;20451;-37
2022/01/05 06:47:58;;;;;;;41.37;19.30;;;;;;;9.97;58.80;95946.41;5096761;28;20486;-36
2022/01/05 06:50:26;;;;;;;48.00;20.43;;;;;;;10.31;59.51;95958.66;5096781;28;20454;-36
2022/01/05 06:52:55;;;;;;;39.87;18.93;;;;;;;10.48;58.20;95969.91;5097060;28;20787;-35
2022/01/05 06:55:24;;;;;;;17.60;11.57;;;;;;;10.64;58.01;95971.59;5097031;28;20439;-36
2022/01/05 06:57:52;;;;;;;27.67;15.97;;;;;;;10.75;57.27;95974.31;5110083;28;20496;-36
2022/01/05 07:00:21;;;;;;;38.77;17.37;;;;;;;10.88;57.90;95968.53;5116968;28;20469;-36
2022/01/05 07:02:48;;;;;;;42.97;22.40;;;;;;;11.02;57.71;95982.97;5116826;28;20449;-36
2022/01/05 07:05:15;;;;;;;108.37;50.70;;;;;;;11.19;56.41;95971.34;5116877;28;20445;-36
2022/01/05 07:07:43;;;;;;;62.20;32.43;;;;;;;11.36;55.11;95973.81;5107898;28;20494;-37
2022/01/05 07:10:11;;;;;;;32.07;15.47;;;;;;;11.38;54.76;95963.69;5096662;28;20470;-36
2022/01/05 07:12:40;;;;;;;16.37;9.77;;;;;;;11.52;53.78;95962.13;5096674;28;20799;-36
2022/01/05 07:15:08;;;;;;;18.50;10.23;;;;;;;11.66;54.35;95965.13;5096670;28;20540;-36
2022/01/05 07:17:36;;;;;;;18.30;12.80;;;;;;;11.73;55.17;95973.63;5096248;28;20439;-36
2022/01/05 07:20:05;;;;;;;11.40;6.77;;;;;;;11.78;55.90;95963.00;5096114;28;20439;-36
2022/01/05 07:22:32;;;;;;;11.00;5.97;;;;;;;11.80;56.53;95971.50;5096242;28;20443;-36
2022/01/05 07:25:00;;;;;;;8.27;5.00;;;;;;;11.82;56.27;95964.06;5096460;28;20859;-37
2022/01/05 07:27:27;;;;;;;40.40;17.77;;;;;;;11.76;56.09;95959.78;5096364;28;20894;-37
2022/01/05 07:29:56;;;;;;;12.33;8.07;;;;;;;11.71;56.96;95951.03;5096448;28;20450;-37
2022/01/05 07:32:23;;;;;;;24.30;13.63;;;;;;;11.79;56.88;95953.16;5096523;28;20449;-37
2022/01/05 07:34:50;;;;;;;22.43;12.60;;;;;;;11.86;56.87;95957.16;5096004;28;20961;-37
2022/01/05 07:37:17;;;;;;;10.57;7.33;;;;;;;11.96;56.55;95948.44;5095137;28;20450;-37
2022/01/05 07:39:45;;;;;;;10.50;5.83;;;;;;;12.03;56.77;95953.47;5096262;28;20435;-37
2022/01/05 07:42:12;;;;;;;12.10;7.37;;;;;;;12.09;56.50;95952.44;5095827;28;20930;-37
2022/01/05 07:44:40;;;;;;;17.50;8.00;;;;;;;12.21;56.17;95950.28;5096078;28;20439;-35
2022/01/05 07:47:09;;;;;;;10.50;7.50;;;;;;;12.23;55.70;95939.38;5096016;28;21095;-37
2022/01/05 07:49:37;;;;;;;16.87;12.23;;;;;;;12.40;55.33;95936.44;5095591;28;20443;-37
2022/01/05 07:52:05;;;;;;;18.53;11.27;;;;;;;12.50;54.77;95931.09;5095587;28;20530;-36
2022/01/05 07:54:34;;;;;;;13.90;8.03;;;;;;;12.69;54.75;95945.44;5095524;28;20805;-36
2022/01/05 07:57:01;;;;;;;24.00;7.80;;;;;;;12.82;53.55;95948.56;5095308;28;20814;-37
2022/01/05 07:59:29;;;;;;;34.17;11.53;;;;;;;12.92;53.12;95948.56;5095675;28;20842;-37
2022/01/05 08:01:56;;;;;;;33.90;13.07;;;;;;;13.04;53.28;95951.72;5095455;28;20443;-37
2022/01/05 08:04:25;;;;;;;27.23;13.63;;;;;;;13.09;52.20;95949.03;5095343;28;20786;-36
2022/01/05 08:06:52;;;;;;;12.60;8.40;;;;;;;13.21;51.82;95951.38;5095610;28;20826;-37
2022/01/05 08:09:19;;;;;;;14.70;7.27;;;;;;;13.27;51.23;95939.63;5095423;28;20435;-37
2022/01/05 08:11:46;;;;;;;15.87;8.93;;;;;;;13.43;51.94;95947.59;5095266;28;20795;-36
2022/01/05 08:14:13;;;;;;;12.43;8.90;;;;;;;13.55;51.61;95944.56;5095272;28;20783;-36
2022/01/05 08:16:42;;;;;;;6.83;5.00;;;;;;;13.52;52.03;95952.06;5094853;28;20446;-37
2022/01/05 08:19:09;;;;;;;7.20;4.40;;;;;;;13.56;52.82;95946.19;5094464;28;20895;-37
2022/01/05 08:21:38;;;;;;;9.07;5.43;;;;;;;13.61;53.15;95946.16;5095301;28;20516;-36
2022/01/05 08:24:06;;;;;;;7.13;4.30;;;;;;;13.66;52.70;95949.59;5094980;28;20454;-37
2022/01/05 08:26:34;;;;;;;4.83;2.70;;;;;;;13.52;52.70;95930.72;5095053;28;20486;-37
2022/01/05 08:29:01;;;;;;;3.10;2.83;;;;;;;13.63;52.98;95936.00;5093939;28;20439;-37
2022/01/05 08:31:28;;;;;;;5.00;3.83;;;;;;;13.73;52.92;95935.94;5093922;28;20824;-38
2022/01/05 08:33:57;;;;;;;4.00;3.00;;;;;;;13.80;52.54;95947.09;5094479;28;20443;-40
2022/01/05 08:36:24;;;;;;;3.47;2.40;;;;;;;13.87;51.58;95944.94;5094290;28;20458;-37
2022/01/05 08:38:52;;;;;;;16.00;6.37;;;;;;;13.90;50.78;95939.03;5094042;28;20446;-37
2022/01/05 08:41:20;;;;;;;8.60;4.03;;;;;;;14.07;50.07;95945.84;5094049;28;20438;-37
2022/01/05 08:43:48;;;;;;;7.90;5.20;;;;;;;14.16;49.16;95933.50;5091544;28;20447;-37
2022/01/05 08:46:15;;;;;;;6.20;4.60;;;;;;;14.23;49.82;95933.97;5094152;28;20446;-37
2022/01/05 08:48:43;;;;;;;6.60;4.60;;;;;;;14.23;50.17;95936.63;5092920;28;20447;-37
2022/01/05 08:51:10;;;;;;;3.03;2.73;;;;;;;14.26;49.08;95933.41;5093820;28;20477;-37
2022/01/05 08:53:37;;;;;;;4.03;2.57;;;;;;;14.36;48.57;95937.06;5094039;28;20436;-37
2022/01/05 08:56:06;;;;;;;5.30;3.37;;;;;;;14.28;48.93;95936.59;5093964;28;20451;-37
2022/01/05 08:58:33;;;;;;;9.13;3.07;;;;;;;14.37;49.25;95925.28;5093534;28;20840;-37
2022/01/05 09:01:01;;;;;;;3.37;2.40;;;;;;;14.38;48.88;95927.69;5093860;28;20439;-35
2022/01/05 09:03:28;;;;;;;3.43;2.40;;;;;;;14.41;48.64;95918.31;5094215;28;20446;-36
2022/01/05 09:05:55;;;;;;;5.13;3.50;;;;;;;14.28;49.67;95922.44;5094215;28;20447;-36
2022/01/05 09:08:23;;;;;;;9.17;5.07;;;;;;;14.40;49.46;95906.06;5094111;28;20493;-37
2022/01/05 09:10:50;;;;;;;13.10;4.50;;;;;;;14.63;49.83;95907.19;5094071;28;20923;-37
2022/01/05 09:13:19;;;;;;;9.33;5.17;;;;;;;14.81;49.44;95905.66;5094129;28;20956;-37
2022/01/05 09:15:46;;;;;;;15.13;10.00;;;;;;;14.97;48.83;95893.72;5094081;28;20526;-36
2022/01/05 09:18:15;;;;;;;4.53;2.90;;;;;;;15.02;48.69;95900.88;5094026;28;20451;-38
2022/01/05 09:20:42;;;;;;;5.90;4.17;;;;;;;14.91;48.75;95900.19;5094252;28;20446;-36
2022/01/05 09:23:10;;;;;;;4.83;4.30;;;;;;;14.88;48.53;95874.81;5094228;28;20462;-37
2022/01/05 09:25:37;;;;;;;11.63;3.70;;;;;;;15.02;48.05;95876.81;5094161;28;20500;-36
2022/01/05 09:28:05;;;;;;;3.10;2.23;;;;;;;15.17;47.04;95887.31;5094075;28;20497;-37
2022/01/05 09:30:34;;;;;;;4.67;3.37;;;;;;;15.24;46.40;95885.06;5094281;28;20435;-38
2022/01/05 09:33:01;;;;;;;5.00;4.40;;;;;;;15.38;45.67;95877.16;5094169;28;20461;-36
2022/01/05 09:35:28;;;;;;;5.97;4.27;;;;;;;15.45;44.50;95866.88;5093685;28;20779;-36
2022/01/05 09:38:08;;;;;;;11.27;3.43;;;;;;;15.54;44.41;95869.69;5093756;28;20443;-36
2022/01/05 09:43:21;;;;;;;4.50;3.63;;;;;;;15.70;43.79;95864.88;5093769;28;21008;-36
2022/01/05 09:46:01;;;;;;;4.00;2.70;;;;;;;15.78;42.71;95858.91;5093867;28;20805;-36
2022/01/05 09:48:56;;;;;;;3.47;3.17;;;;;;;15.90;43.31;95858.47;5093627;28;20474;-35
2022/01/05 09:51:28;;;;;;;2.70;2.40;;;;;;;16.00;43.18;95855.59;5091982;28;20455;-36
2022/01/05 09:53:57;;;;;;;3.07;2.77;;;;;;;16.04;43.44;95847.78;5093539;28;20435;-36
2022/01/05 09:56:25;;;;;;;2.90;2.70;;;;;;;16.13;43.18;95846.00;5093813;28;20443;-36
2022/01/05 09:58:53;;;;;;;2.57;2.20;;;;;;;16.10;44.30;95844.72;5093199;28;20833;-37
2022/01/05 10:01:22;;;;;;;2.77;2.13;;;;;;;16.08;44.74;95840.75;5093093;28;20439;-36
2022/01/05 10:03:50;;;;;;;3.03;2.27;;;;;;;15.97;44.49;95840.94;5093363;28;20439;-35
2022/01/05 10:06:17;;;;;;;4.70;2.90;;;;;;;15.97;44.54;95835.56;5093430;28;20457;-36
2022/01/05 10:08:44;;;;;;;3.33;2.17;;;;;;;15.99;44.36;95821.13;5093334;28;20478;-36
2022/01/05 10:11:12;;;;;;;8.23;3.00;;;;;;;15.99;45.15;95823.78;5093548;28;20527;-35
2022/01/05 10:13:39;;;;;;;8.47;3.93;;;;;;;15.95;44.88;95824.38;5093229;28;20936;-36
2022/01/05 10:16:08;;;;;;;5.83;3.50;;;;;;;15.83;47.17;95818.69;5093265;28;20454;-36
2022/01/05 10:18:42;;;;;;;6.80;5.30;;;;;;;15.82;49.44;95835.84;5093501;28;20522;-35
2022/01/05 10:21:11;;;;;;;6.23;3.50;;;;;;;15.81;50.36;95822.72;5093203;28;20435;-35
2022/01/05 10:23:41;;;;;;;5.13;3.87;;;;;;;15.66;50.71;95813.84;5093297;28;20454;-36
2022/01/05 10:26:29;;;;;;;7.73;4.87;;;;;;;15.61;51.29;95811.25;5093136;28;20471;-35
2022/01/05 10:28:59;;;;;;;9.00;3.93;;;;;;;15.55;50.74;95818.56;5093059;28;20478;-36
2022/01/05 10:31:29;;;;;;;4.60;3.50;;;;;;;15.45;51.29;95815.25;5093711;28;20446;-36
2022/01/05 10:33:59;;;;;;;8.23;4.33;;;;;;;15.37;51.84;95822.06;5093164;28;20438;-38
2022/01/05 10:36:43;;;;;;;5.07;3.77;;;;;;;15.32;51.42;95814.91;5093147;28;20812;-36
2022/01/05 10:39:10;;;;;;;6.93;4.33;;;;;;;15.36;51.72;95810.56;5093597;28;20431;-36
2022/01/05 10:41:39;;;;;;;5.30;4.27;;;;;;;15.40;51.39;95802.78;5093361;28;20461;-37
2022/01/05 10:44:15;;;;;;;5.80;3.33;;;;;;;15.42;51.26;95797.91;5093341;28;20442;-36
2022/01/05 10:46:44;;;;;;;9.47;3.57;;;;;;;15.39;51.29;95781.66;5092910;28;20431;-37
2022/01/05 10:49:23;;;;;;;3.73;3.00;;;;;;;15.33;50.54;95788.94;5093157;28;20494;-35
2022/01/05 10:51:51;;;;;;;6.03;3.77;;;;;;;15.30;51.17;95789.53;5093514;28;20507;-34
2022/01/05 10:54:21;;;;;;;14.13;5.57;;;;;;;15.33;51.05;95783.59;5092958;28;20435;-35
2022/01/05 10:56:49;;;;;;;3.63;3.07;;;;;;;15.30;49.88;95778.84;5092987;28;20814;-35
2022/01/05 10:59:23;;;;;;;5.20;3.37;;;;;;;15.11;50.92;95776.97;5092866;28;20474;-35
2022/01/05 11:01:51;;;;;;;4.23;3.77;;;;;;;15.20;49.45;95795.81;5093235;28;20778;-35
2022/01/05 11:04:22;;;;;;;8.97;3.73;;;;;;;15.10;50.15;95779.91;5092909;28;20439;-36
2022/01/05 11:06:57;;;;;;;2.97;2.70;;;;;;;15.14;49.49;95792.44;5092848;28;20424;-36
2022/01/05 11:09:24;;;;;;;5.70;3.73;;;;;;;15.17;50.18;95784.94;5092702;28;20423;-35
2022/01/05 11:11:52;;;;;;;6.60;3.50;;;;;;;15.19;50.89;95782.75;5093261;28;20438;-35
2022/01/05 11:14:22;;;;;;;8.10;3.30;;;;;;;15.25;49.52;95781.56;5096644;28;20454;-35
2022/01/05 11:16:51;;;;;;;5.13;2.50;;;;;;;15.19;50.34;95782.75;5096387;28;20443;-35
2022/01/05 11:19:21;;;;;;;9.73;5.47;;;;;;;15.24;50.54;95790.69;5096261;28;20434;-35
2022/01/05 11:22:06;;;;;;;3.03;2.47;;;;;;;15.34;50.96;95785.22;5096255;28;20435;-36
2022/01/05 11:24:37;;;;;;;10.60;3.60;;;;;;;15.45;50.48;95775.16;5096137;28;20427;-35
2022/01/05 11:27:06;;;;;;;3.77;3.40;;;;;;;15.51;49.93;95779.34;5096314;28;20431;-36
2022/01/05 11:29:35;;;;;;;7.83;3.17;;;;;;;15.55;49.93;95775.78;5096002;28;20449;-36
2022/01/05 11:32:04;;;;;;;6.53;4.40;;;;;;;15.56;49.28;95779.25;5095979;28;20496;-35
2022/01/05 11:34:33;;;;;;;7.43;3.53;;;;;;;15.61;49.58;95770.31;5096265;28;20447;-35
2022/01/05 11:37:02;;;;;;;4.20;2.70;;;;;;;15.66;47.14;95760.34;5096265;28;20950;-35
2022/01/05 11:39:31;;;;;;;5.40;2.47;;;;;;;15.70;45.16;95756.00;5095923;28;20447;-35
2022/01/05 11:42:00;;;;;;;3.90;3.13;;;;;;;15.76;45.15;95751.38;5095866;28;20861;-35